createdAt,value
2022-12-31T00:01:49.365Z,4
2022-12-31T00:03:50.976Z,5.8
2022-12-31T00:05:52.750Z,3.6
2022-12-31T00:07:58.031Z,4.4
2022-12-31T00:09:59.827Z,4.8
2022-12-31T00:12:01.638Z,4
2022-12-31T00:16:10.044Z,4
2022-12-31T00:18:07.104Z,2.1
2022-12-31T00:20:08.821Z,2.5
2022-12-31T00:22:14.120Z,3.1
2022-12-31T00:24:15.916Z,2.3
2022-12-31T00:26:17.733Z,0.9
2022-12-31T00:28:19.480Z,1.3
2022-12-31T00:30:21.282Z,1.1
2022-12-31T00:32:23.066Z,0.9
2022-12-31T00:34:24.877Z,0.7
2022-12-31T00:36:30.195Z,1.5
2022-12-31T00:38:32.023Z,3
2022-12-31T00:40:33.764Z,1.4
2022-12-31T00:44:37.377Z,2
2022-12-31T00:48:40.936Z,1.8
2022-12-31T00:50:46.210Z,1.6
2022-12-31T00:52:47.981Z,1.3
2022-12-31T00:54:49.809Z,2.9
2022-12-31T00:57:12.050Z,1.4
2022-12-31T00:59:13.826Z,2.3
2022-12-31T01:01:15.760Z,1.1
2022-12-31T01:03:20.964Z,1.6
2022-12-31T01:05:22.679Z,5.4
2022-12-31T01:09:26.244Z,5.6
2022-12-31T01:11:28.030Z,0.8
2022-12-31T01:17:36.843Z,1
2022-12-31T01:29:47.557Z,0.9
2022-12-31T01:37:58.150Z,1.1
2022-12-31T01:39:59.958Z,0.8
2022-12-31T01:44:03.518Z,0.7
2022-12-31T01:46:08.909Z,0.9
2022-12-31T01:48:10.546Z,1.9
2022-12-31T01:50:12.391Z,0.9
2022-12-31T01:51:15.012Z,1.3
2022-12-31T01:53:16.735Z,0.7
2022-12-31T01:55:18.522Z,1.4
2022-12-31T01:57:20.323Z,0.7
2022-12-31T01:59:25.579Z,0.8
2022-12-31T02:01:27.475Z,1
2022-12-31T02:03:29.212Z,1.1
2022-12-31T02:05:30.962Z,1.6
2022-12-31T02:07:32.756Z,1
2022-12-31T02:09:34.544Z,2.2
2022-12-31T02:11:36.315Z,1.6
2022-12-31T02:13:41.593Z,2
2022-12-31T02:17:45.192Z,1.7
2022-12-31T02:21:48.772Z,2.1
2022-12-31T02:32:01.215Z,3.7
2022-12-31T02:34:02.948Z,2.7
2022-12-31T02:42:13.629Z,3.3
2022-12-31T02:47:19.865Z,3.2
2022-12-31T02:49:21.666Z,4.6
2022-12-31T02:51:23.445Z,2.7
2022-12-31T02:53:25.220Z,3.2
2022-12-31T02:55:30.479Z,3.1
2022-12-31T02:57:32.280Z,2.4
2022-12-31T02:59:34.066Z,3.2
2022-12-31T03:01:36.023Z,3.6
2022-12-31T03:03:37.615Z,3.5
2022-12-31T03:07:41.176Z,4.8
2022-12-31T03:09:46.445Z,3.8
2022-12-31T03:11:48.220Z,7.6
2022-12-31T03:13:50.044Z,3.8
2022-12-31T03:15:51.904Z,3.6
2022-12-31T03:17:53.602Z,4.4
2022-12-31T03:19:55.399Z,5.6
2022-12-31T03:21:57.473Z,4
2022-12-31T03:24:02.760Z,3.6
2022-12-31T03:26:04.561Z,2.8
2022-12-31T03:28:06.336Z,3.6
2022-12-31T03:32:10.053Z,1.6
2022-12-31T03:34:11.723Z,2.2
2022-12-31T03:36:13.498Z,1.2
2022-12-31T03:38:18.773Z,2.5
2022-12-31T03:40:20.538Z,1.5
2022-12-31T03:42:22.438Z,1.7
2022-12-31T03:43:24.963Z,1.3
2022-12-31T03:45:26.764Z,0.9
2022-12-31T03:47:28.536Z,2.2
2022-12-31T03:49:30.285Z,1.8
2022-12-31T03:55:39.120Z,2.7
2022-12-31T03:57:40.880Z,1.1
2022-12-31T03:59:42.643Z,2.4
2022-12-31T04:01:44.572Z,2.7
2022-12-31T04:05:51.495Z,1.5
2022-12-31T04:07:53.330Z,0.6
2022-12-31T04:16:00.488Z,0.6
2022-12-31T04:18:02.327Z,0.5
2022-12-31T04:20:07.531Z,1.6
2022-12-31T04:24:11.049Z,5.7
2022-12-31T04:26:12.869Z,1.9
2022-12-31T04:28:14.619Z,2.5
2022-12-31T04:30:16.408Z,0.6
2022-12-31T04:32:18.207Z,2.4
2022-12-31T04:34:23.483Z,0.5
2022-12-31T04:36:25.237Z,1.8
2022-12-31T04:38:27.124Z,0.4
2022-12-31T04:40:50.936Z,1.7
2022-12-31T04:42:52.710Z,0.5
2022-12-31T04:44:54.489Z,1
2022-12-31T04:46:59.776Z,0.7
2022-12-31T04:49:01.542Z,1.8
2022-12-31T04:51:03.381Z,0.4
2022-12-31T04:53:05.137Z,3.4
2022-12-31T04:55:06.877Z,0.7
2022-12-31T04:57:08.671Z,1.7
2022-12-31T04:59:10.486Z,0.5
2022-12-31T05:01:15.869Z,1.2
2022-12-31T05:05:20.908Z,1.3
2022-12-31T05:07:22.680Z,0.6
2022-12-31T05:09:24.499Z,0.4
2022-12-31T05:11:26.262Z,0.6
2022-12-31T05:13:32.941Z,0.6
2022-12-31T05:15:33.349Z,1
2022-12-31T05:17:35.097Z,0.8
2022-12-31T05:19:36.894Z,0.6
2022-12-31T05:21:38.681Z,0.5
2022-12-31T05:23:40.434Z,0.6
2022-12-31T05:25:42.226Z,2.2
2022-12-31T05:29:49.458Z,1.1
2022-12-31T05:31:51.093Z,0.6
2022-12-31T05:33:52.883Z,1
2022-12-31T05:34:55.527Z,1.4
2022-12-31T05:36:57.304Z,1
2022-12-31T05:38:59.104Z,0.8
2022-12-31T05:41:00.890Z,1.2
2022-12-31T05:43:06.189Z,1.6
2022-12-31T05:45:07.952Z,0.5
2022-12-31T05:49:11.543Z,0.5
2022-12-31T05:55:16.890Z,0.3
2022-12-31T05:59:23.960Z,0.3
2022-12-31T06:03:27.574Z,0.2
2022-12-31T06:05:29.311Z,0.7
2022-12-31T06:07:31.111Z,0.2
2022-12-31T06:09:32.890Z,0.3
2022-12-31T06:15:41.806Z,0.3
2022-12-31T06:19:45.297Z,0.3
2022-12-31T06:21:47.071Z,0.2
2022-12-31T06:29:57.725Z,0.2
2022-12-31T06:31:00.425Z,0.2
2022-12-31T06:39:10.933Z,0.6
2022-12-31T06:41:12.729Z,0.3
2022-12-31T06:49:19.821Z,1.3
2022-12-31T06:51:21.599Z,1
2022-12-31T06:53:26.862Z,1.1
2022-12-31T06:55:28.632Z,1.7
2022-12-31T06:57:30.414Z,1.2
2022-12-31T06:59:32.187Z,1.7
2022-12-31T07:01:34.085Z,2.1
2022-12-31T07:03:35.751Z,1.7
2022-12-31T07:05:37.504Z,1.7
2022-12-31T07:07:42.812Z,2.3
2022-12-31T07:09:44.530Z,2.7
2022-12-31T07:11:46.371Z,3.3
2022-12-31T07:13:48.107Z,4.2
2022-12-31T07:15:50.012Z,2.1
2022-12-31T07:17:51.715Z,0.9
2022-12-31T07:19:57.492Z,3.7
2022-12-31T07:21:58.770Z,8.3
2022-12-31T07:24:00.548Z,1.5
2022-12-31T07:26:02.339Z,1.8
2022-12-31T07:27:04.969Z,1.3
2022-12-31T07:29:06.766Z,1.5
2022-12-31T07:33:10.353Z,1
2022-12-31T07:39:19.258Z,0.8
2022-12-31T07:41:21.311Z,1
2022-12-31T07:43:23.052Z,1.4
2022-12-31T07:45:24.667Z,0.8
2022-12-31T07:51:33.514Z,1.8
2022-12-31T07:57:38.868Z,0.8
2022-12-31T08:01:42.666Z,1.5
2022-12-31T08:05:49.538Z,1.2
2022-12-31T08:07:51.291Z,1.7
2022-12-31T08:09:53.110Z,1
2022-12-31T08:18:03.728Z,1.8
2022-12-31T08:20:05.553Z,1.7
2022-12-31T08:22:07.345Z,3.9
2022-12-31T08:24:30.515Z,2.1
2022-12-31T08:26:32.331Z,1
2022-12-31T08:28:34.097Z,1.4
2022-12-31T08:30:39.426Z,1.2
2022-12-31T08:32:41.264Z,0.9
2022-12-31T08:34:42.989Z,1.1
2022-12-31T08:36:44.759Z,3
2022-12-31T08:38:46.619Z,1.3
2022-12-31T08:40:48.342Z,1.4
2022-12-31T08:42:50.147Z,1
2022-12-31T08:44:55.432Z,1.2
2022-12-31T08:46:57.263Z,0.6
2022-12-31T08:48:59.065Z,1.2
2022-12-31T08:51:00.841Z,1
2022-12-31T08:53:02.795Z,1.7
2022-12-31T08:55:04.522Z,1.1
2022-12-31T08:57:06.215Z,1.2
2022-12-31T08:59:11.508Z,1.6
2022-12-31T09:01:13.406Z,4.8
2022-12-31T09:03:15.124Z,1.1
2022-12-31T09:05:16.894Z,0.7
2022-12-31T09:07:18.696Z,4.7
2022-12-31T09:09:20.478Z,0.5
2022-12-31T09:11:23.480Z,0.7
2022-12-31T09:13:27.522Z,0.5
2022-12-31T09:15:29.323Z,2.5
2022-12-31T09:17:31.154Z,1.3
2022-12-31T09:22:37.327Z,0.4
2022-12-31T09:26:44.411Z,0.8
2022-12-31T09:32:51.925Z,0.6
2022-12-31T09:34:51.559Z,0.3
2022-12-31T09:38:55.114Z,1.3
2022-12-31T09:41:00.385Z,1.1
2022-12-31T09:43:02.204Z,4.6
2022-12-31T09:45:03.987Z,1.7
2022-12-31T09:47:05.771Z,0.5
2022-12-31T09:49:07.605Z,3.2
2022-12-31T09:51:09.390Z,0.6
2022-12-31T09:53:11.169Z,1.3
2022-12-31T09:55:16.452Z,1.2
2022-12-31T09:59:20.204Z,2.7
2022-12-31T10:01:22.026Z,1.3
2022-12-31T10:03:23.675Z,0.8
2022-12-31T10:05:25.443Z,1.9
2022-12-31T10:07:27.214Z,2.6
2022-12-31T10:09:32.604Z,0.5
2022-12-31T10:11:34.333Z,1.3
2022-12-31T10:13:36.134Z,4.6
2022-12-31T10:14:43.679Z,1.2
2022-12-31T10:16:40.650Z,1.1
2022-12-31T10:18:42.366Z,2.6
2022-12-31T10:20:45.412Z,1
2022-12-31T10:22:49.437Z,1.6
2022-12-31T10:26:53.539Z,0.9
2022-12-31T10:28:54.868Z,0.9
2022-12-31T10:30:56.709Z,2.6
2022-12-31T10:32:58.471Z,2.4
2022-12-31T10:35:00.272Z,2.1
2022-12-31T10:37:05.602Z,1.2
2022-12-31T10:39:10.773Z,9.9
2022-12-31T10:41:09.196Z,3.6
2022-12-31T10:43:11.032Z,1
2022-12-31T10:45:12.799Z,1.1
2022-12-31T10:47:14.647Z,1.3
2022-12-31T10:49:16.450Z,1.4
2022-12-31T10:51:21.742Z,2
2022-12-31T10:55:25.326Z,0.8
2022-12-31T10:57:27.169Z,1.8
2022-12-31T10:59:30.630Z,3.1
2022-12-31T11:01:32.484Z,1.6
2022-12-31T11:09:43.139Z,1.6
2022-12-31T11:25:01.821Z,0.9
2022-12-31T11:27:03.656Z,1.8
2022-12-31T11:29:05.444Z,0.8
2022-12-31T11:33:12.586Z,0.8
2022-12-31T11:35:14.341Z,2.2
2022-12-31T11:51:32.320Z,5.3
2022-12-31T11:53:34.132Z,2.4
2022-12-31T11:55:35.947Z,2.6
2022-12-31T11:57:37.860Z,5.3
2022-12-31T11:59:39.540Z,1.9
2022-12-31T12:01:44.830Z,1.4
2022-12-31T12:03:46.643Z,10.7
2022-12-31T12:05:48.417Z,2
2022-12-31T12:08:06.123Z,4.2
2022-12-31T12:10:07.926Z,2.1
2022-12-31T12:12:09.717Z,3
2022-12-31T12:14:15.091Z,3.1
2022-12-31T12:16:16.827Z,1.2
2022-12-31T12:20:20.395Z,1.8
2022-12-31T12:22:22.234Z,2.8
2022-12-31T12:24:24.022Z,1.3
2022-12-31T12:26:25.814Z,3.9
2022-12-31T12:28:31.086Z,2.4
2022-12-31T12:30:32.875Z,6.6
2022-12-31T12:32:34.696Z,5.1
2022-12-31T12:34:36.534Z,9.3
2022-12-31T12:36:38.292Z,1.8
2022-12-31T12:38:40.121Z,2.2
2022-12-31T12:40:41.915Z,4.4
2022-12-31T12:42:47.206Z,4.5
2022-12-31T12:44:49.008Z,3.5
2022-12-31T12:46:50.863Z,2
2022-12-31T12:48:52.624Z,2.6
2022-12-31T12:50:54.458Z,3.4
2022-12-31T12:52:59.357Z,5.2
2022-12-31T12:54:58.094Z,3.1
2022-12-31T12:57:03.353Z,2.5
2022-12-31T13:01:07.124Z,3.5
2022-12-31T13:02:09.774Z,2.4
2022-12-31T13:06:13.312Z,3
2022-12-31T13:10:20.421Z,2.1
2022-12-31T13:12:22.238Z,5.1
2022-12-31T13:16:25.996Z,3.4
2022-12-31T13:18:27.629Z,1.9
2022-12-31T13:20:29.456Z,7.1
2022-12-31T13:22:31.255Z,1.4
2022-12-31T13:30:41.981Z,3.3
2022-12-31T13:32:43.795Z,1.5
2022-12-31T13:34:45.597Z,2.9
2022-12-31T13:36:47.401Z,1.7
2022-12-31T13:38:52.719Z,4.5
2022-12-31T13:40:54.493Z,1.8
2022-12-31T13:42:56.264Z,1.4
2022-12-31T13:46:59.918Z,1.7
2022-12-31T13:49:01.716Z,3.7
2022-12-31T13:51:03.507Z,3.9
2022-12-31T13:53:08.786Z,1.9
2022-12-31T13:55:10.637Z,2.4
2022-12-31T13:57:12.392Z,1.3
2022-12-31T13:58:15.067Z,3.3
2022-12-31T14:00:16.850Z,2.1
2022-12-31T14:06:25.765Z,4.7
2022-12-31T14:08:27.572Z,4.1
2022-12-31T14:10:29.374Z,7
2022-12-31T14:12:31.169Z,5.4
2022-12-31T14:14:32.976Z,6.1
2022-12-31T14:16:34.858Z,6.9
2022-12-31T14:18:36.585Z,3.1
2022-12-31T14:20:41.846Z,1.8
2022-12-31T14:22:43.660Z,11.8
2022-12-31T14:24:45.458Z,2.6
2022-12-31T14:32:52.692Z,5.2
2022-12-31T14:34:57.986Z,5.5
2022-12-31T14:36:59.781Z,1.5
2022-12-31T14:39:01.565Z,5.4
2022-12-31T14:41:03.356Z,3.3
2022-12-31T14:43:05.196Z,3.2
2022-12-31T14:45:07.015Z,9.3
2022-12-31T14:47:08.934Z,2.5
2022-12-31T14:49:14.082Z,3.2
2022-12-31T14:51:15.930Z,2.9
2022-12-31T14:54:24.357Z,2.3
2022-12-31T14:56:23.246Z,9.6
2022-12-31T14:58:28.677Z,3.6
2022-12-31T15:00:25.760Z,5.1
2022-12-31T15:02:31.236Z,12.9
2022-12-31T15:06:34.642Z,3.5
2022-12-31T15:10:38.265Z,2.6
2022-12-31T15:12:40.065Z,23.5
2022-12-31T15:16:47.209Z,5.1
2022-12-31T15:18:48.934Z,4.3
2022-12-31T15:24:54.383Z,3.5
2022-12-31T15:26:56.198Z,10.2
2022-12-31T15:31:03.339Z,5.9
2022-12-31T15:33:05.107Z,4.7
2022-12-31T15:35:06.898Z,11.1
2022-12-31T15:41:12.365Z,5
2022-12-31T15:43:14.144Z,8.4
2022-12-31T15:45:19.439Z,5.1
2022-12-31T15:47:21.273Z,11.5
2022-12-31T15:49:23.120Z,2.8
2022-12-31T15:51:47.135Z,12.3
2022-12-31T15:53:48.957Z,10
2022-12-31T15:55:50.777Z,16.4
2022-12-31T15:57:56.061Z,10.9
2022-12-31T15:59:57.867Z,5
2022-12-31T16:01:59.836Z,16.1
2022-12-31T16:04:01.438Z,3.2
2022-12-31T16:06:03.276Z,9.8
2022-12-31T16:08:05.108Z,13.1
2022-12-31T16:10:06.916Z,8
2022-12-31T16:12:12.198Z,15.5
2022-12-31T16:14:14.022Z,3
2022-12-31T16:16:15.976Z,11.6
2022-12-31T16:18:22.847Z,5.2
2022-12-31T16:20:19.449Z,5.7
2022-12-31T16:24:23.066Z,13.4
2022-12-31T16:26:28.350Z,4
2022-12-31T16:34:35.609Z,15
2022-12-31T16:36:37.441Z,21.4
2022-12-31T16:38:39.243Z,13.5
2022-12-31T16:40:44.526Z,13.8
2022-12-31T16:42:46.339Z,5.9
2022-12-31T16:44:48.147Z,13
2022-12-31T16:47:52.621Z,6.2
2022-12-31T16:49:56.109Z,12.8
2022-12-31T16:51:57.847Z,43.5
2022-12-31T16:54:03.161Z,8.9
2022-12-31T17:00:08.605Z,5.5
2022-12-31T17:02:10.538Z,6.4
2022-12-31T17:04:12.330Z,5.6
2022-12-31T17:06:14.008Z,7
2022-12-31T17:08:19.303Z,8.7
2022-12-31T17:10:21.107Z,6.8
2022-12-31T17:12:22.907Z,7.9
2022-12-31T17:14:24.725Z,7.1
2022-12-31T17:16:26.599Z,3.5
2022-12-31T17:18:28.347Z,5.7
2022-12-31T17:20:30.152Z,8.3
2022-12-31T17:22:37.202Z,14.7
2022-12-31T17:24:37.339Z,7
2022-12-31T17:26:39.102Z,26.2
2022-12-31T17:28:40.914Z,32
2022-12-31T17:30:42.739Z,17.7
2022-12-31T17:32:44.584Z,16.2
2022-12-31T17:34:46.435Z,4.5
2022-12-31T17:36:52.295Z,6.1
2022-12-31T17:38:53.470Z,6
2022-12-31T17:40:55.281Z,12.4
2022-12-31T17:41:57.943Z,3
2022-12-31T17:43:59.790Z,3.5
2022-12-31T17:46:01.576Z,6.9
2022-12-31T17:48:03.421Z,5.1
2022-12-31T17:50:08.716Z,5.9
2022-12-31T17:52:10.544Z,3.3
2022-12-31T17:54:12.342Z,3.3
2022-12-31T17:58:15.957Z,5.1
2022-12-31T18:00:17.771Z,9.8
2022-12-31T18:06:26.724Z,6.4
2022-12-31T18:08:28.616Z,4.6
2022-12-31T18:10:30.353Z,8.2
2022-12-31T18:12:32.140Z,8.4
2022-12-31T18:14:33.977Z,5.6
2022-12-31T18:16:35.888Z,4.4
2022-12-31T18:18:41.087Z,6.3
2022-12-31T18:20:42.925Z,13.1
2022-12-31T18:22:44.684Z,4.6
2022-12-31T18:24:46.484Z,4.5
2022-12-31T18:26:48.271Z,12.5
2022-12-31T18:28:50.107Z,7.7
2022-12-31T18:30:51.925Z,7.4
2022-12-31T18:32:57.196Z,4.7
2022-12-31T18:34:58.996Z,5
2022-12-31T18:37:00.830Z,7.3
2022-12-31T18:38:03.509Z,11.2
2022-12-31T18:40:05.290Z,12.2
2022-12-31T18:42:07.080Z,2.1
2022-12-31T18:44:08.886Z,5.4
2022-12-31T18:46:14.293Z,9.6
2022-12-31T18:48:16.128Z,9.5
2022-12-31T18:50:17.819Z,5.8
2022-12-31T18:52:19.661Z,14.7
2022-12-31T18:54:21.440Z,6.5
2022-12-31T18:56:23.269Z,11.6
2022-12-31T19:00:30.349Z,5
2022-12-31T19:02:32.172Z,5.8
2022-12-31T19:04:33.991Z,9.9
2022-12-31T19:06:35.779Z,10.6
2022-12-31T19:10:39.397Z,10.3
2022-12-31T19:12:41.212Z,8
2022-12-31T19:14:46.564Z,5.8
2022-12-31T19:16:48.412Z,10.3
2022-12-31T19:22:53.803Z,4.3
2022-12-31T19:24:55.615Z,24.7
2022-12-31T19:26:57.432Z,23
2022-12-31T19:29:02.682Z,8
2022-12-31T19:33:06.341Z,5.7
2022-12-31T19:41:39.412Z,7.7
2022-12-31T19:43:41.220Z,5.9
2022-12-31T19:45:43.073Z,10
2022-12-31T19:47:44.874Z,15.4
2022-12-31T19:49:46.672Z,4.8
2022-12-31T19:51:48.744Z,8.3
2022-12-31T19:53:50.349Z,8.7
2022-12-31T19:55:55.584Z,6.7
2022-12-31T19:57:57.394Z,4.2
2022-12-31T19:59:59.234Z,19.3
2022-12-31T20:04:02.877Z,7.1
2022-12-31T20:06:04.686Z,6.4
2022-12-31T20:08:06.481Z,12.5
2022-12-31T20:10:11.805Z,11.6
2022-12-31T20:12:13.605Z,9.1
2022-12-31T20:14:15.445Z,4.7
2022-12-31T20:16:17.358Z,6.2
2022-12-31T20:18:19.023Z,4.9
2022-12-31T20:20:20.843Z,7.6
2022-12-31T20:22:22.691Z,14.2
2022-12-31T20:24:27.959Z,3.2
2022-12-31T20:26:29.785Z,8.8
2022-12-31T20:29:34.270Z,12.2
2022-12-31T20:31:36.104Z,12
2022-12-31T20:35:39.728Z,12.8
2022-12-31T20:37:45.017Z,18.2
2022-12-31T20:41:48.650Z,6.5
2022-12-31T20:43:50.470Z,6.3
2022-12-31T20:45:52.317Z,12.9
2022-12-31T20:47:54.131Z,11.6
2022-12-31T20:50:11.122Z,8.3
2022-12-31T20:52:01.286Z,4.7
2022-12-31T20:54:03.127Z,4.8
2022-12-31T20:58:06.798Z,7.3
2022-12-31T21:00:08.600Z,17.6
2022-12-31T21:02:22.813Z,10.5
2022-12-31T21:04:12.376Z,10.2
2022-12-31T21:06:17.563Z,8.8
2022-12-31T21:08:19.335Z,7.1
2022-12-31T21:10:21.152Z,9.9
2022-12-31T21:12:22.969Z,3.3
2022-12-31T21:16:26.867Z,8.5
2022-12-31T21:18:28.434Z,14.4
2022-12-31T21:20:33.714Z,11.5
2022-12-31T21:24:37.380Z,10.6
2022-12-31T21:25:40.024Z,16.7
2022-12-31T21:30:16.458Z,7.7
2022-12-31T21:31:45.461Z,4.7
2022-12-31T21:33:50.754Z,6.8
2022-12-31T21:35:54.035Z,18.5
2022-12-31T21:39:56.188Z,25.4
2022-12-31T21:43:59.841Z,12.4
2022-12-31T21:46:01.728Z,3.9
2022-12-31T21:48:06.913Z,6.5
2022-12-31T21:50:08.763Z,24.4
2022-12-31T21:52:10.596Z,7.4
2022-12-31T21:54:12.395Z,7.5
2022-12-31T21:56:14.198Z,9.1
2022-12-31T21:58:25.682Z,9.6
2022-12-31T22:00:41.260Z,9.5
2022-12-31T22:02:23.343Z,25.3
2022-12-31T22:05:00.430Z,14.5
2022-12-31T22:06:26.817Z,12.9
2022-12-31T22:08:28.621Z,16.1
2022-12-31T22:10:34.972Z,13
2022-12-31T22:12:32.309Z,12.4
2022-12-31T22:14:34.065Z,10
2022-12-31T22:16:39.449Z,8.4
2022-12-31T22:18:41.208Z,32.5
2022-12-31T22:20:43.013Z,8.9
2022-12-31T22:21:45.652Z,7.3
2022-12-31T22:23:47.472Z,6.8
2022-12-31T22:25:49.280Z,14.1
2022-12-31T22:28:27.455Z,23.6
2022-12-31T22:29:56.410Z,9.6
2022-12-31T22:32:01.133Z,10.7
2022-12-31T22:34:00.058Z,13.5
2022-12-31T22:36:01.817Z,17.1
2022-12-31T22:38:09.983Z,7.9
2022-12-31T22:40:05.479Z,20.4
2022-12-31T22:42:08.937Z,5.1
2022-12-31T22:44:14.194Z,4.8
2022-12-31T22:48:17.856Z,15.7
2022-12-31T22:50:19.677Z,25.2
2022-12-31T22:52:21.515Z,10.3
2022-12-31T22:54:23.328Z,7.3
2022-12-31T22:56:25.138Z,4.5
2022-12-31T22:58:30.455Z,13
2022-12-31T23:00:32.261Z,18.7
2022-12-31T23:02:39.884Z,13.1
2022-12-31T23:04:35.866Z,19.2
2022-12-31T23:06:37.685Z,55.4
2022-12-31T23:08:39.498Z,102.6
2022-12-31T23:12:46.605Z,79.9
2022-12-31T23:14:48.417Z,95.1
2022-12-31T23:16:50.246Z,115.5
2022-12-31T23:19:13.949Z,95.8
2022-12-31T23:21:15.769Z,100.5
2022-12-31T23:25:22.876Z,80
2022-12-31T23:29:26.496Z,63.4
2022-12-31T23:33:30.124Z,49.4
2022-12-31T23:35:31.928Z,36
2022-12-31T23:37:33.738Z,38.7
2022-12-31T23:39:39.051Z,16.4
2022-12-31T23:41:40.878Z,24.4
2022-12-31T23:43:42.695Z,14.5
2022-12-31T23:45:44.480Z,19.6
2022-12-31T23:47:46.304Z,23.1
2022-12-31T23:49:48.139Z,18.1
2022-12-31T23:53:55.265Z,10.1
2022-12-31T23:55:57.118Z,12.5
2022-12-31T23:57:58.917Z,24.6
